Time;durP1;ratioP1;P1;durP2;ratioP2;P2;SDS_P1;SDS_P2;PMS_P1;PMS_P2;Temp;Humidity;BMP_temperature;BMP_pressure;BME280_temperature;BME280_humidity;BME280_pressure;Samples;Min_cycle;Max_cycle;Signal;HPM_P1;HPM_P2
2022/10/28 00:00:49;;;;;;;14.63;7.47;;;;;;;15.53;79.55;101661.78;4797065;29;20037;-86
2022/10/28 00:03:14;;;;;;;14.98;7.60;;;;;;;15.48;79.60;101661.13;4799590;29;20030;-87
2022/10/28 00:05:40;;;;;;;15.43;9.10;;;;;;;15.39;79.37;101666.88;4778564;29;20412;-86
2022/10/28 00:08:05;;;;;;;10.80;8.10;;;;;;;15.28;80.24;101660.25;4782978;29;20101;-86
2022/10/28 00:10:30;;;;;;;12.27;7.90;;;;;;;15.34;80.45;101661.78;4786693;29;20492;-86
2022/10/28 00:12:55;;;;;;;13.70;7.00;;;;;;;15.36;80.16;101653.72;4797766;29;20370;-86
2022/10/28 00:15:21;;;;;;;14.73;7.40;;;;;;;15.44;79.65;101659.56;4786776;29;20035;-86
2022/10/28 00:17:46;;;;;;;11.73;7.75;;;;;;;15.45;80.38;101670.13;4774239;29;20063;-86
2022/10/28 00:20:11;;;;;;;12.95;7.90;;;;;;;15.39;80.19;101666.88;4794871;29;20476;-85
2022/10/28 00:22:37;;;;;;;13.40;7.70;;;;;;;15.22;80.64;101659.69;4790289;29;20153;-87
2022/10/28 00:25:03;;;;;;;12.82;6.00;;;;;;;15.04;80.94;101656.06;4795908;29;20035;-86
2022/10/28 00:27:28;;;;;;;16.60;7.90;;;;;;;15.09;81.60;101655.84;4801603;29;20138;-87
2022/10/28 00:29:54;;;;;;;14.20;7.78;;;;;;;15.20;81.03;101657.09;4779755;29;20027;-86
2022/10/28 00:32:19;;;;;;;12.65;7.05;;;;;;;15.05;80.89;101636.47;4799388;29;20598;-86
2022/10/28 00:34:45;;;;;;;18.33;8.68;;;;;;;15.01;80.96;101641.13;4786506;29;20031;-86
2022/10/28 00:37:10;;;;;;;16.38;7.93;;;;;;;15.25;81.28;101656.91;4777049;30;20019;-87
2022/10/28 00:39:35;;;;;;;20.55;8.10;;;;;;;15.23;81.09;101656.09;4787435;29;20117;-87
2022/10/28 00:42:02;;;;;;;16.88;9.90;;;;;;;15.22;81.98;101652.56;4791469;29;20031;-86
2022/10/28 00:44:36;;;;;;;20.52;10.18;;;;;;;15.33;82.66;101654.72;4794956;29;20027;-86
2022/10/28 00:47:04;;;;;;;18.60;9.00;;;;;;;15.15;83.13;101648.44;4781907;29;20455;-86
2022/10/28 00:49:33;;;;;;;14.73;9.55;;;;;;;15.12;83.76;101637.94;4800984;29;20023;-86
2022/10/28 00:52:03;;;;;;;15.30;9.80;;;;;;;15.08;83.38;101640.81;4787585;29;20442;-86
2022/10/28 00:54:30;;;;;;;18.95;9.50;;;;;;;15.08;84.30;101651.47;4770039;30;20062;-86
2022/10/28 00:56:59;;;;;;;18.83;8.80;;;;;;;15.02;81.86;101633.97;4802427;29;20097;-87
2022/10/28 00:59:32;;;;;;;15.90;8.55;;;;;;;14.97;82.13;101620.03;4792426;29;20097;-85
2022/10/28 01:01:58;;;;;;;16.02;9.30;;;;;;;14.95;82.92;101601.44;4791251;29;20209;-85
2022/10/28 01:04:24;;;;;;;20.98;9.40;;;;;;;15.02;83.65;101616.22;4791700;29;20559;-85
2022/10/28 01:06:50;;;;;;;14.57;9.60;;;;;;;15.08;83.03;101619.50;4803530;29;20027;-86
2022/10/28 01:09:16;;;;;;;12.95;8.30;;;;;;;15.03;81.88;101617.06;4803941;29;20050;-86
2022/10/28 01:12:05;;;;;;;14.07;8.77;;;;;;;14.97;82.03;101601.38;4791597;29;20829;-86
2022/10/28 01:14:42;;;;;;;16.35;9.70;;;;;;;15.00;82.52;101627.84;4797812;29;20031;-87
2022/10/28 01:17:07;;;;;;;14.55;8.60;;;;;;;14.95;82.17;101612.09;4787777;29;20032;-86
2022/10/28 01:20:11;;;;;;;16.67;8.80;;;;;;;14.92;81.68;101614.00;4783495;30;20058;-86
2022/10/28 01:22:48;;;;;;;15.98;8.88;;;;;;;14.88;83.67;101625.75;4777677;30;20297;-86
2022/10/28 01:25:55;;;;;;;15.25;9.23;;;;;;;14.86;83.12;101601.00;4777655;30;20035;-86
2022/10/28 01:28:42;;;;;;;15.50;8.45;;;;;;;14.93;84.59;101616.63;4766502;30;20043;-85
2022/10/28 01:31:40;;;;;;;12.60;8.10;;;;;;;14.91;83.37;101607.81;4783276;29;20038;-86
2022/10/28 01:34:28;;;;;;;15.05;8.02;;;;;;;14.94;83.21;101615.69;4767655;30;20116;-86
2022/10/28 01:37:00;;;;;;;15.93;9.02;;;;;;;14.88;83.85;101605.31;4779343;29;20038;-86
2022/10/28 01:39:40;;;;;;;22.02;8.90;;;;;;;15.05;83.92;101604.53;4776139;30;20534;-86
2022/10/28 01:42:27;;;;;;;17.00;8.98;;;;;;;15.08;83.43;101606.19;4768619;30;20051;-85
2022/10/28 01:45:29;;;;;;;15.15;9.18;;;;;;;15.11;82.79;101616.69;4780257;29;20034;-86
2022/10/28 01:48:05;;;;;;;15.70;9.32;;;;;;;14.99;83.83;101600.34;4737338;29;20047;-86
2022/10/28 01:50:45;;;;;;;21.52;9.15;;;;;;;14.98;83.97;101587.13;4761733;30;20034;-86
2022/10/28 01:53:15;;;;;;;14.10;8.32;;;;;;;14.90;83.28;101592.78;4772256;29;20152;-86
2022/10/28 01:55:45;;;;;;;15.75;8.40;;;;;;;14.84;82.89;101594.88;4767731;30;20036;-86
2022/10/28 01:58:14;;;;;;;14.73;8.00;;;;;;;14.83;82.63;101604.69;4779464;29;20058;-86
2022/10/28 02:00:41;;;;;;;18.98;7.60;;;;;;;14.74;81.35;101600.63;4768580;30;20081;-86
2022/10/28 02:03:08;;;;;;;14.38;6.75;;;;;;;14.59;81.24;101577.34;4781924;29;20045;-86
2022/10/28 02:05:57;;;;;;;14.90;8.73;;;;;;;14.71;82.90;101598.09;4785359;29;20492;-87
2022/10/28 02:08:32;;;;;;;16.08;7.93;;;;;;;14.69;82.70;101607.97;4782475;30;20035;-86
2022/10/28 02:11:00;;;;;;;14.30;7.78;;;;;;;14.63;82.57;101597.56;4777607;30;20054;-86
2022/10/28 02:13:41;;;;;;;12.25;7.15;;;;;;;14.61;82.03;101596.78;4774917;30;20036;-86
2022/10/28 02:16:25;;;;;;;15.50;8.35;;;;;;;14.54;83.29;101595.31;4772086;30;20042;-87
2022/10/28 02:19:12;;;;;;;15.90;7.97;;;;;;;14.53;83.46;101594.47;4777692;29;20086;-86
2022/10/28 02:21:55;;;;;;;14.13;7.18;;;;;;;14.50;82.93;101585.75;4793254;29;20066;-86
2022/10/28 02:24:48;;;;;;;17.17;7.65;;;;;;;14.58;82.08;101601.38;4786703;29;20488;-86
2022/10/28 02:27:20;;;;;;;13.57;7.60;;;;;;;14.48;82.37;101600.94;4796799;29;20039;-85
2022/10/28 02:29:53;;;;;;;14.65;7.25;;;;;;;14.48;83.04;101592.94;4795100;29;20042;-86
2022/10/28 02:32:23;;;;;;;14.38;6.53;;;;;;;14.43;82.51;101593.13;4793019;29;20037;-86
2022/10/28 02:34:52;;;;;;;13.40;5.70;;;;;;;14.35;82.37;101576.63;4786208;29;20037;-86
2022/10/28 02:37:23;;;;;;;13.40;7.40;;;;;;;14.39;82.92;101586.19;4782507;29;20107;-86
2022/10/28 02:39:54;;;;;;;15.68;7.40;;;;;;;14.41;82.24;101594.09;4778525;29;20085;-86
2022/10/28 02:42:24;;;;;;;12.10;6.13;;;;;;;14.19;82.75;101562.28;4794822;29;20038;-86
2022/10/28 02:44:59;;;;;;;9.85;6.43;;;;;;;14.24;82.97;101578.91;4794215;29;20043;-87
2022/10/28 02:47:29;;;;;;;10.10;6.60;;;;;;;14.20;81.88;101591.47;4786848;29;20073;-86
2022/10/28 02:50:00;;;;;;;12.95;6.95;;;;;;;14.05;82.03;101570.84;4801766;29;20038;-87
2022/10/28 02:52:28;;;;;;;11.45;5.57;;;;;;;14.11;83.15;101588.34;4806273;29;20031;-86
2022/10/28 02:54:57;;;;;;;11.63;6.05;;;;;;;14.01;82.49;101578.09;4772300;29;20031;-87
2022/10/28 02:57:28;;;;;;;13.40;6.18;;;;;;;13.95;82.93;101566.88;4772030;30;20031;-86
2022/10/28 02:59:55;;;;;;;13.33;6.53;;;;;;;14.08;83.51;101578.69;4789739;29;20030;-86
2022/10/28 03:02:22;;;;;;;10.98;5.80;;;;;;;14.09;83.04;101582.22;4788282;29;20780;-86
2022/10/28 03:04:47;;;;;;;11.90;6.38;;;;;;;14.04;83.58;101572.66;4786587;29;20031;-86
2022/10/28 03:07:13;;;;;;;14.25;6.50;;;;;;;13.97;83.76;101563.19;4796828;29;20557;-86
2022/10/28 03:09:38;;;;;;;10.95;6.00;;;;;;;13.97;83.44;101568.50;4802989;29;20037;-87
2022/10/28 03:12:03;;;;;;;13.52;6.07;;;;;;;13.94;82.97;101570.44;4781035;29;20051;-86
2022/10/28 03:14:29;;;;;;;14.35;6.30;;;;;;;14.00;84.13;101580.81;4793672;29;20387;-86
2022/10/28 03:16:54;;;;;;;12.95;6.78;;;;;;;14.00;82.36;101572.84;4797216;29;20031;-86
2022/10/28 03:19:19;;;;;;;11.50;5.80;;;;;;;13.97;82.38;101570.31;4774162;29;20043;-86
2022/10/28 03:21:44;;;;;;;12.02;5.65;;;;;;;13.91;82.30;101574.09;4785401;29;20035;-86
2022/10/28 03:24:10;;;;;;;11.82;5.97;;;;;;;13.82;83.41;101571.81;4795913;29;20074;-86
2022/10/28 03:26:35;;;;;;;13.30;6.28;;;;;;;13.73;83.62;101561.56;4795950;29;20428;-86
2022/10/28 03:29:00;;;;;;;14.23;6.07;;;;;;;13.71;83.18;101563.44;4789287;29;20035;-86
2022/10/28 03:31:26;;;;;;;13.48;5.80;;;;;;;13.71;83.53;101564.31;4784881;29;20083;-86
2022/10/28 03:33:51;;;;;;;10.43;5.47;;;;;;;13.77;83.50;101573.81;4776812;29;20027;-86
2022/10/28 03:36:16;;;;;;;13.50;6.00;;;;;;;13.71;84.37;101572.28;4781230;30;20070;-86
2022/10/28 03:38:41;;;;;;;12.27;5.85;;;;;;;13.71;82.66;101576.75;4762009;29;20031;-86
2022/10/28 03:41:07;;;;;;;12.77;5.63;;;;;;;13.62;83.01;101561.16;4796431;29;20075;-87
2022/10/28 03:43:32;;;;;;;9.30;5.63;;;;;;;13.68;83.35;101569.75;4790301;29;20026;-86
2022/10/28 03:45:57;;;;;;;13.57;6.28;;;;;;;13.75;83.74;101565.03;4796869;29;20060;-86
2022/10/28 03:48:22;;;;;;;14.60;6.22;;;;;;;13.83;83.62;101568.22;4787317;29;20035;-87
2022/10/28 03:50:52;;;;;;;10.43;5.15;;;;;;;13.71;82.85;101552.81;4794435;29;20060;-86
2022/10/28 03:53:17;;;;;;;12.55;5.88;;;;;;;13.78;83.38;101556.94;4802508;29;20074;-86
2022/10/28 03:55:42;;;;;;;9.52;6.07;;;;;;;13.87;84.23;101558.34;4785922;30;20047;-86
2022/10/28 03:58:07;;;;;;;11.98;6.30;;;;;;;13.88;83.19;101554.75;4800142;29;20042;-86
2022/10/28 04:00:33;;;;;;;12.32;6.15;;;;;;;13.95;83.27;101570.38;4796433;29;20484;-86
2022/10/28 04:02:58;;;;;;;16.48;6.30;;;;;;;13.92;84.32;101554.56;4797678;29;20041;-86
2022/10/28 04:05:24;;;;;;;12.57;6.45;;;;;;;14.07;84.42;101565.47;4794837;29;20027;-86
2022/10/28 04:07:49;;;;;;;13.30;6.65;;;;;;;13.95;84.00;101556.22;4784306;29;20117;-86
2022/10/28 04:10:14;;;;;;;9.38;5.28;;;;;;;13.86;83.05;101552.16;4796605;29;20438;-86
2022/10/28 04:12:40;;;;;;;14.00;5.78;;;;;;;13.84;82.93;101550.47;4782785;29;20470;-86
2022/10/28 04:15:05;;;;;;;14.90;5.90;;;;;;;13.84;83.46;101558.47;4770275;30;20404;-86
2022/10/28 04:17:33;;;;;;;14.10;6.90;;;;;;;13.95;84.18;101572.19;4787663;29;20118;-86
2022/10/28 04:19:58;;;;;;;7.15;5.03;;;;;;;13.84;83.98;101551.34;4802564;29;20090;-86
2022/10/28 04:22:23;;;;;;;11.07;5.47;;;;;;;13.83;82.99;101556.75;4782101;29;20480;-86
2022/10/28 04:24:49;;;;;;;11.88;5.43;;;;;;;13.88;83.29;101576.88;4777190;29;20040;-86
2022/10/28 04:27:14;;;;;;;12.52;5.00;;;;;;;13.89;83.58;101575.06;4803449;29;20517;-86
2022/10/28 04:29:39;;;;;;;12.32;5.30;;;;;;;13.87;83.41;101579.59;4793226;29;20062;-85
2022/10/28 04:32:04;;;;;;;9.27;4.90;;;;;;;13.74;83.76;101557.97;4803329;29;20407;-86
2022/10/28 04:34:30;;;;;;;13.93;5.30;;;;;;;13.85;83.73;101576.13;4792510;29;20034;-86
2022/10/28 04:36:55;;;;;;;11.93;5.35;;;;;;;13.82;84.09;101566.50;4790357;29;20112;-86
2022/10/28 04:39:20;;;;;;;13.10;5.03;;;;;;;13.85;83.49;101573.47;4775780;30;20042;-86
2022/10/28 04:41:46;;;;;;;12.38;5.68;;;;;;;13.88;83.03;101578.66;4788201;29;20038;-86
2022/10/28 04:44:11;;;;;;;12.07;5.93;;;;;;;13.83;84.54;101575.34;4780295;30;20038;-86
2022/10/28 04:46:36;;;;;;;14.73;6.18;;;;;;;13.65;83.66;101553.06;4787853;29;20031;-86
2022/10/28 04:49:02;;;;;;;15.27;5.63;;;;;;;13.68;84.02;101569.75;4793797;29;20031;-86
2022/10/28 04:51:27;;;;;;;10.20;5.60;;;;;;;13.62;84.13;101564.69;4786993;29;20430;-86
2022/10/28 04:53:53;;;;;;;14.40;5.97;;;;;;;13.65;84.08;101571.66;4797422;29;20376;-85
2022/10/28 04:56:18;;;;;;;10.13;5.65;;;;;;;13.56;83.80;101574.69;4798399;29;20035;-85
2022/10/28 04:58:45;;;;;;;12.70;5.82;;;;;;;13.49;83.80;101566.13;4793487;29;20058;-86
2022/10/28 05:01:10;;;;;;;11.82;5.72;;;;;;;13.52;83.42;101569.53;4775362;29;20531;-86
2022/10/28 05:03:36;;;;;;;13.77;5.85;;;;;;;13.53;82.87;101554.44;4796670;29;20149;-86
2022/10/28 05:06:01;;;;;;;11.27;5.75;;;;;;;13.57;83.18;101572.00;4798288;29;20395;-86
2022/10/28 05:08:27;;;;;;;12.82;6.10;;;;;;;13.44;83.46;101560.13;4769684;30;20031;-86
2022/10/28 05:10:52;;;;;;;11.60;5.88;;;;;;;13.38;83.75;101550.63;4773798;29;20081;-86
2022/10/28 05:13:18;;;;;;;11.77;6.00;;;;;;;13.46;83.82;101571.53;4781108;30;20420;-86
2022/10/28 05:15:43;;;;;;;11.80;5.65;;;;;;;13.44;84.96;101562.78;4781235;29;20563;-86
2022/10/28 05:18:09;;;;;;;9.00;5.95;;;;;;;13.51;85.13;101556.28;4792143;29;20062;-86
2022/10/28 05:20:35;;;;;;;11.68;5.97;;;;;;;13.56;84.44;101575.53;4803002;29;20034;-86
2022/10/28 05:23:00;;;;;;;11.95;5.38;;;;;;;13.42;85.70;101551.34;4794783;29;20495;-86
2022/10/28 05:25:26;;;;;;;12.52;5.53;;;;;;;13.45;84.48;101562.72;4774743;29;20089;-86
2022/10/28 05:27:51;;;;;;;13.48;6.00;;;;;;;13.51;84.59;101567.75;4803105;29;20031;-85
2022/10/28 05:30:17;;;;;;;10.70;5.72;;;;;;;13.51;83.98;101553.63;4777590;29;20619;-85
2022/10/28 05:32:42;;;;;;;11.15;5.93;;;;;;;13.66;84.23;101560.97;4796869;29;20027;-85
2022/10/28 05:35:09;;;;;;;10.27;6.28;;;;;;;13.73;85.19;101562.44;4785148;30;20439;-86
2022/10/28 05:37:34;;;;;;;9.25;5.45;;;;;;;13.66;84.90;101533.50;4767547;30;20454;-85
2022/10/28 05:39:59;;;;;;;14.63;6.88;;;;;;;13.72;85.01;101551.88;4795397;29;20034;-86
2022/10/28 05:42:25;;;;;;;13.50;5.90;;;;;;;13.70;82.89;101561.69;4791384;29;20075;-85
2022/10/28 05:44:50;;;;;;;11.02;5.38;;;;;;;13.57;82.83;101550.72;4790587;29;20028;-86
2022/10/28 05:47:15;;;;;;;14.38;6.13;;;;;;;13.58;84.49;101549.81;4788645;29;20045;-86
2022/10/28 05:49:40;;;;;;;11.55;5.10;;;;;;;13.55;82.93;101563.19;4785127;29;20369;-86
2022/10/28 05:52:06;;;;;;;17.02;5.60;;;;;;;13.56;82.93;101569.38;4774467;29;20023;-86
2022/10/28 05:54:31;;;;;;;11.88;5.72;;;;;;;13.44;83.87;101552.16;4791430;29;20031;-86
2022/10/28 05:56:56;;;;;;;13.07;5.70;;;;;;;13.43;83.93;101556.59;4795689;29;20039;-86
2022/10/28 05:59:21;;;;;;;10.75;5.88;;;;;;;13.44;83.89;101562.78;4790029;29;20065;-85
2022/10/28 06:01:47;;;;;;;10.40;5.68;;;;;;;13.32;83.74;101542.88;4799009;29;20027;-86
2022/10/28 06:04:12;;;;;;;11.98;5.75;;;;;;;13.36;83.75;101551.59;4775373;30;20062;-86
2022/10/28 06:06:37;;;;;;;12.65;5.85;;;;;;;13.32;85.08;101544.69;4797071;29;20031;-85
2022/10/28 06:09:03;;;;;;;10.35;5.40;;;;;;;13.39;84.58;101552.34;4779220;29;20046;-85
2022/10/28 06:11:28;;;;;;;11.18;5.60;;;;;;;13.45;84.04;101567.16;4769524;30;20063;-85
2022/10/28 06:13:53;;;;;;;10.50;5.30;;;;;;;13.39;83.75;101549.69;4792969;29;20043;-86
2022/10/28 06:16:19;;;;;;;14.70;6.30;;;;;;;13.40;84.64;101554.06;4800797;29;20490;-86
2022/10/28 06:18:44;;;;;;;16.80;6.40;;;;;;;13.47;85.46;101575.91;4781419;30;20051;-86
2022/10/28 06:21:09;;;;;;;9.70;5.78;;;;;;;13.46;84.80;101574.19;4780732;29;20390;-86
2022/10/28 06:23:35;;;;;;;13.52;5.93;;;;;;;13.39;84.55;101564.75;4777733;30;20035;-86
2022/10/28 06:26:01;;;;;;;9.77;5.72;;;;;;;13.36;83.46;101567.53;4773621;30;20062;-86
2022/10/28 06:28:27;;;;;;;13.00;6.03;;;;;;;13.41;83.98;101578.84;4787975;29;20539;-86
2022/10/28 06:30:53;;;;;;;13.35;6.28;;;;;;;13.35;84.46;101563.16;4780000;29;20035;-86
2022/10/28 06:33:18;;;;;;;13.20;5.60;;;;;;;13.46;84.79;101563.56;4778080;29;20039;-85
2022/10/28 06:35:44;;;;;;;12.75;6.78;;;;;;;13.49;85.19;101564.31;4770795;30;20038;-86
2022/10/28 06:38:09;;;;;;;18.45;6.35;;;;;;;13.58;85.72;101576.38;4767669;30;20024;-85
2022/10/28 06:40:34;;;;;;;14.50;6.03;;;;;;;13.63;85.21;101579.69;4786880;29;20496;-87
2022/10/28 06:43:05;;;;;;;16.23;6.85;;;;;;;13.68;85.05;101566.22;4777709;30;20046;-87
2022/10/28 06:45:33;;;;;;;15.57;5.97;;;;;;;13.68;84.87;101572.41;4780733;29;20169;-86
2022/10/28 06:48:00;;;;;;;16.23;6.55;;;;;;;13.70;84.70;101573.19;4779048;30;20032;-85
2022/10/28 06:50:26;;;;;;;13.90;5.95;;;;;;;13.63;84.79;101558.44;4773843;30;20054;-85
2022/10/28 06:52:51;;;;;;;11.07;5.85;;;;;;;13.65;84.32;101553.91;4788136;29;20071;-85
2022/10/28 06:55:17;;;;;;;14.43;6.60;;;;;;;13.66;84.80;101562.75;4774387;30;20535;-86
2022/10/28 06:57:42;;;;;;;18.30;6.38;;;;;;;13.78;84.84;101559.59;4780223;29;20035;-91
2022/10/28 07:00:08;;;;;;;19.38;6.60;;;;;;;13.94;84.60;101560.69;4784629;30;20548;-91
2022/10/28 07:02:33;;;;;;;11.65;6.63;;;;;;;14.06;84.51;101572.56;4786708;30;20035;-91
2022/10/28 07:04:58;;;;;;;15.70;7.40;;;;;;;14.13;84.09;101566.06;4773980;29;20054;-91
2022/10/28 07:07:23;;;;;;;13.95;5.88;;;;;;;14.17;84.11;101572.97;4777327;30;20035;-92
2022/10/28 07:09:49;;;;;;;15.98;6.20;;;;;;;14.28;84.32;101572.50;4781228;30;20380;-91
2022/10/28 07:12:14;;;;;;;18.20;6.45;;;;;;;14.47;83.89;101581.41;4778904;29;20031;-91
2022/10/28 07:14:39;;;;;;;16.55;7.07;;;;;;;14.61;83.82;101579.97;4774652;30;20577;-86
2022/10/28 07:17:04;;;;;;;20.73;7.30;;;;;;;14.58;83.63;101572.97;4776792;29;20046;-86
2022/10/28 07:19:30;;;;;;;10.77;5.90;;;;;;;14.79;83.43;101569.34;4779449;30;20131;-86
2022/10/28 07:21:55;;;;;;;14.85;6.68;;;;;;;14.92;83.30;101563.44;4780400;29;20051;-86
2022/10/28 07:24:20;;;;;;;16.10;6.20;;;;;;;15.04;82.37;101582.38;4780959;29;20401;-86
2022/10/28 07:26:48;;;;;;;16.92;6.70;;;;;;;14.98;82.72;101573.81;4778800;30;20492;-86
2022/10/28 07:29:13;;;;;;;16.25;6.78;;;;;;;15.08;82.64;101572.44;4784737;29;20057;-86
2022/10/28 07:31:38;;;;;;;16.42;7.07;;;;;;;15.19;82.51;101577.25;4760179;30;20062;-86
2022/10/28 07:34:04;;;;;;;14.60;6.68;;;;;;;15.25;83.39;101572.50;4769047;30;20036;-86
2022/10/28 07:36:29;;;;;;;12.52;6.85;;;;;;;15.50;81.93;101596.16;4763210;29;20027;-86
2022/10/28 07:38:54;;;;;;;17.85;7.38;;;;;;;15.58;82.03;101579.81;4772999;30;20039;-85
2022/10/28 07:41:21;;;;;;;18.50;7.30;;;;;;;15.71;81.79;101599.59;4754145;30;20528;-86
2022/10/28 07:43:46;;;;;;;16.63;6.68;;;;;;;15.81;81.17;101595.56;4768805;30;20035;-85
2022/10/28 07:46:12;;;;;;;13.02;6.82;;;;;;;15.93;82.17;101585.19;4776804;30;20043;-86
2022/10/28 07:48:38;;;;;;;15.95;6.50;;;;;;;16.06;81.14;101581.81;4765715;29;20038;-84
2022/10/28 07:51:05;;;;;;;14.07;6.05;;;;;;;16.33;80.74;101592.88;4785923;29;20041;-85
2022/10/28 07:53:31;;;;;;;11.30;6.07;;;;;;;16.54;80.21;101584.69;4782266;30;20061;-85
2022/10/28 07:55:59;;;;;;;15.60;6.60;;;;;;;16.72;79.37;101577.53;4753409;30;20046;-85
2022/10/28 07:58:25;;;;;;;10.75;5.68;;;;;;;17.18;76.78;101564.31;4771597;29;20048;-85
2022/10/28 08:00:51;;;;;;;16.45;6.68;;;;;;;17.73;74.91;101572.72;4762554;29;20035;-85
2022/10/28 08:03:16;;;;;;;15.02;5.82;;;;;;;18.40;73.91;101566.97;4770760;30;20066;-85
2022/10/28 08:05:42;;;;;;;14.63;5.15;;;;;;;19.06;71.40;101563.72;4776209;30;20118;-85
2022/10/28 08:08:07;;;;;;;14.27;5.82;;;;;;;19.95;67.53;101577.50;4768064;30;20027;-85
2022/10/28 08:10:32;;;;;;;9.90;5.82;;;;;;;20.59;63.96;101574.91;4770097;30;20114;-85
2022/10/28 08:12:59;;;;;;;11.85;5.57;;;;;;;21.06;63.71;101582.25;4782701;30;20035;-85
2022/10/28 08:15:25;;;;;;;13.18;5.53;;;;;;;21.16;61.79;101587.81;4762072;30;20035;-85
2022/10/28 08:17:51;;;;;;;17.00;6.00;;;;;;;21.73;61.06;101583.66;4760946;29;20077;-85
2022/10/28 08:20:17;;;;;;;13.40;5.40;;;;;;;22.18;59.69;101598.19;4783601;30;20039;-85
2022/10/28 08:22:42;;;;;;;9.98;5.35;;;;;;;22.06;59.20;101597.28;4790274;29;20098;-85
2022/10/28 08:25:08;;;;;;;15.10;5.43;;;;;;;21.99;60.73;101608.63;4794436;29;20031;-85
2022/10/28 08:27:33;;;;;;;18.90;5.30;;;;;;;21.88;59.53;101604.91;4798178;29;20638;-84
2022/10/28 08:29:58;;;;;;;14.93;5.60;;;;;;;21.78;60.19;101603.03;4802007;29;20023;-85
2022/10/28 08:32:24;;;;;;;11.50;5.18;;;;;;;21.59;60.09;101596.34;4781858;30;20023;-85
2022/10/28 08:34:49;;;;;;;12.70;5.53;;;;;;;21.34;61.37;101601.78;4795780;29;20151;-85
2022/10/28 08:37:15;;;;;;;14.75;5.43;;;;;;;21.02;61.80;101594.19;4767579;30;20057;-86
2022/10/28 08:39:40;;;;;;;10.35;5.25;;;;;;;20.71;62.55;101592.00;4782805;29;20027;-86
2022/10/28 08:42:28;;;;;;;14.15;5.82;;;;;;;20.94;64.20;101601.09;4790467;29;20077;-85
2022/10/28 08:45:21;;;;;;;16.02;5.75;;;;;;;21.39;63.20;101608.56;4775255;29;20369;-86
2022/10/28 08:48:04;;;;;;;12.82;5.20;;;;;;;21.72;61.36;101609.72;4778094;29;20035;-86
2022/10/28 08:50:32;;;;;;;14.55;5.38;;;;;;;21.76;60.75;101596.88;4772117;29;20426;-85
2022/10/28 08:53:06;;;;;;;11.38;5.32;;;;;;;22.21;60.20;101581.78;4791876;29;20031;-85
2022/10/28 08:55:40;;;;;;;11.73;4.78;;;;;;;22.77;58.54;101584.56;4782196;29;20062;-85
2022/10/28 08:58:17;;;;;;;9.85;5.22;;;;;;;23.57;57.24;101587.03;4773123;29;20035;-85
2022/10/28 09:00:47;;;;;;;12.45;5.25;;;;;;;23.70;57.63;101599.56;4787022;29;20389;-85
2022/10/28 09:03:19;;;;;;;10.40;5.60;;;;;;;24.21;55.19;101593.44;4797229;29;20027;-85
2022/10/28 09:05:49;;;;;;;14.68;4.60;;;;;;;25.06;52.48;101591.31;4795967;29;20035;-85
2022/10/28 09:08:27;;;;;;;11.80;5.50;;;;;;;24.85;54.22;101606.75;4785124;29;20031;-85
2022/10/28 09:11:19;;;;;;;11.57;4.95;;;;;;;24.81;55.07;101614.31;4794404;29;20031;-85
2022/10/28 09:14:12;;;;;;;12.52;4.65;;;;;;;24.82;54.31;101613.31;4779061;29;20061;-85
2022/10/28 09:17:07;;;;;;;18.13;5.32;;;;;;;24.44;54.79;101611.25;4781798;29;20058;-85
2022/10/28 09:19:46;;;;;;;12.25;5.00;;;;;;;23.93;55.90;101607.44;4744538;29;20130;-85
2022/10/28 09:22:24;;;;;;;18.05;5.53;;;;;;;24.05;56.97;101607.38;4766088;30;20508;-85
2022/10/28 09:25:01;;;;;;;15.75;5.43;;;;;;;24.80;54.67;101614.41;4785528;29;20038;-85
2022/10/28 09:27:38;;;;;;;12.90;4.60;;;;;;;25.75;52.63;101605.88;4772588;30;20034;-85
2022/10/28 09:30:09;;;;;;;10.05;4.75;;;;;;;26.88;48.67;101608.75;4778326;30;20085;-85
2022/10/28 09:33:12;;;;;;;17.05;4.70;;;;;;;27.86;50.51;101605.34;4778047;29;20119;-85
2022/10/28 09:35:43;;;;;;;10.20;4.75;;;;;;;27.46;46.97;101609.31;4792512;29;20038;-85
2022/10/28 09:38:11;;;;;;;10.70;4.20;;;;;;;26.17;46.80;101614.59;4761827;30;20224;-86
2022/10/28 09:40:41;;;;;;;10.30;4.38;;;;;;;24.95;50.70;101623.91;4778625;30;20053;-85
2022/10/28 09:43:24;;;;;;;12.32;4.35;;;;;;;23.95;53.58;101618.09;4778996;30;20027;-85
2022/10/28 09:45:54;;;;;;;11.48;4.45;;;;;;;23.21;55.03;101626.00;4755521;30;20039;-85
2022/10/28 09:48:24;;;;;;;13.50;4.70;;;;;;;23.29;56.10;101617.28;4778033;29;20041;-85
2022/10/28 09:50:52;;;;;;;11.98;4.07;;;;;;;24.32;52.81;101613.13;4775763;29;20088;-86
2022/10/28 09:53:25;;;;;;;16.65;4.68;;;;;;;25.65;51.32;101600.47;4779468;30;20452;-86
2022/10/28 09:55:50;;;;;;;8.98;3.92;;;;;;;26.63;46.84;101616.56;4776565;30;20545;-85
2022/10/28 09:58:17;;;;;;;19.13;4.40;;;;;;;26.90;44.63;101629.28;4781239;29;20040;-84
2022/10/28 10:00:42;;;;;;;13.18;4.55;;;;;;;27.59;44.39;101617.09;4771598;30;20510;-85
2022/10/28 10:03:08;;;;;;;8.95;4.15;;;;;;;27.87;42.92;101617.91;4776913;29;20110;-85
2022/10/28 10:05:39;;;;;;;9.20;3.85;;;;;;;28.05;42.42;101622.50;4766894;30;20066;-86
2022/10/28 10:08:05;;;;;;;8.07;3.90;;;;;;;28.43;41.16;101624.84;4778936;29;20154;-85
2022/10/28 10:10:53;;;;;;;9.50;3.60;;;;;;;29.09;43.44;101617.09;4781864;29;20366;-86
2022/10/28 10:13:26;;;;;;;16.73;4.57;;;;;;;28.91;40.82;101622.59;4761846;30;20250;-85
2022/10/28 10:16:14;;;;;;;12.23;4.07;;;;;;;28.00;42.90;101622.09;4771113;29;20640;-86
2022/10/28 10:18:45;;;;;;;9.40;4.10;;;;;;;27.51;41.81;101624.28;4774657;29;20389;-86
2022/10/28 10:21:11;;;;;;;15.23;4.17;;;;;;;27.59;41.50;101608.94;4784358;30;20059;-86
2022/10/28 10:23:37;;;;;;;16.65;4.95;;;;;;;27.23;42.68;101610.72;4774108;30;20099;-85
2022/10/28 10:26:09;;;;;;;8.70;3.42;;;;;;;27.09;44.24;101616.66;4778786;30;20047;-86
2022/10/28 10:28:36;;;;;;;;;;;;;;;27.38;45.49;101622.81;4778719;30;20027;-86
2022/10/28 10:31:07;;;;;;;11.80;4.18;;;;;;;28.01;42.04;101610.22;4784218;30;19918;-86
2022/10/28 10:33:35;;;;;;;11.17;4.37;;;;;;;28.00;41.20;101603.06;4768195;30;20031;-85
2022/10/28 10:36:10;;;;;;;17.10;4.97;;;;;;;28.30;40.59;101609.94;4773300;30;20035;-86
2022/10/28 10:38:36;;;;;;;13.93;3.70;;;;;;;27.80;42.74;101605.97;4762603;29;20051;-86
2022/10/28 10:41:03;;;;;;;14.13;4.45;;;;;;;28.41;41.59;101613.28;4768411;30;20048;-85
2022/10/28 10:43:32;;;;;;;11.40;3.80;;;;;;;28.59;41.44;101605.09;4778597;30;20080;-86
2022/10/28 10:46:03;;;;;;;11.90;3.45;;;;;;;28.39;40.05;101603.56;4758768;30;20476;-86
2022/10/28 10:48:31;;;;;;;12.45;4.20;;;;;;;28.39;40.11;101590.81;4772274;30;20031;-85
2022/10/28 10:50:57;;;;;;;13.65;3.88;;;;;;;28.71;39.09;101590.16;4759063;30;20036;-86
2022/10/28 10:53:26;;;;;;;11.32;4.40;;;;;;;28.51;39.69;101579.69;4776105;30;20031;-86
2022/10/28 10:56:07;;;;;;;15.60;3.70;;;;;;;27.80;40.95;101586.94;4776002;30;20484;-86
2022/10/28 10:58:54;;;;;;;13.33;3.77;;;;;;;27.65;41.80;101581.16;4771924;29;20023;-86
2022/10/28 11:01:26;;;;;;;14.55;3.90;;;;;;;27.67;41.42;101584.56;4784572;29;20047;-86
2022/10/28 11:04:03;;;;;;;17.85;4.40;;;;;;;27.92;41.14;101582.09;4762366;30;20032;-87
2022/10/28 11:06:37;;;;;;;9.10;3.90;;;;;;;28.33;40.14;101591.44;4786160;29;20114;-85
2022/10/28 11:09:05;;;;;;;13.18;4.13;;;;;;;28.68;38.76;101604.13;4782545;29;20423;-85
2022/10/28 11:11:39;;;;;;;13.98;3.63;;;;;;;28.97;38.41;101608.38;4771026;30;20497;-86
2022/10/28 11:14:07;;;;;;;13.15;4.00;;;;;;;28.83;39.71;101609.81;4759338;30;20027;-86
2022/10/28 11:16:32;;;;;;;16.00;4.10;;;;;;;28.72;39.13;101585.56;4781388;29;20497;-85
2022/10/28 11:19:18;;;;;;;12.23;4.82;;;;;;;28.03;40.63;101581.03;4787047;29;20055;-86
2022/10/28 11:22:01;;;;;;;11.15;3.72;;;;;;;26.82;42.42;101585.78;4798158;29;20485;-85
2022/10/28 11:24:41;;;;;;;12.50;3.88;;;;;;;26.12;43.62;101574.38;4801541;29;20114;-85
2022/10/28 11:27:15;;;;;;;12.07;3.97;;;;;;;25.58;45.84;101561.38;4777117;29;20035;-85